Time;durP1;ratioP1;P1;durP2;ratioP2;P2;SDS_P1;SDS_P2;PMS_P1;PMS_P2;Temp;Humidity;BMP_temperature;BMP_pressure;BME280_temperature;BME280_humidity;BME280_pressure;Samples;Min_cycle;Max_cycle;Signal;HPM_P1;HPM_P2
2021/07/20 00:02:17;;;;;;;0.50;0.50;;;;;;;20.93;100.00;96850.97;5014905;28;20033;-82
2021/07/20 00:04:43;;;;;;;1.30;1.00;;;;;;;20.92;100.00;96846.56;5032935;28;20029;-82
2021/07/20 00:07:08;;;;;;;0.70;0.70;;;;;;;21.00;100.00;96855.56;5015213;28;20029;-82
2021/07/20 00:09:34;;;;;;;1.33;1.02;;;;;;;20.93;100.00;96846.41;5011926;28;20542;-82
2021/07/20 00:11:59;;;;;;;0.85;0.85;;;;;;;20.97;100.00;96857.78;4997314;28;20516;-82
2021/07/20 00:14:25;;;;;;;2.65;1.33;;;;;;;21.05;100.00;96857.72;4998680;28;20491;-82
2021/07/20 00:16:50;;;;;;;1.55;1.35;;;;;;;20.97;100.00;96838.75;5014881;28;20459;-82
2021/07/20 00:19:16;;;;;;;1.77;0.82;;;;;;;21.06;100.00;96843.13;5014331;28;20520;-82
2021/07/20 00:21:41;;;;;;;1.08;0.98;;;;;;;21.02;100.00;96848.06;5011796;28;20030;-82
2021/07/20 00:24:07;;;;;;;2.00;1.40;;;;;;;20.96;100.00;96843.31;5014044;28;20029;-82
2021/07/20 00:26:33;;;;;;;0.95;0.68;;;;;;;20.87;100.00;96838.09;4994977;28;20539;-82
2021/07/20 00:28:58;;;;;;;0.82;0.80;;;;;;;20.72;100.00;96832.53;5011642;28;20025;-82
2021/07/20 00:31:24;;;;;;;1.48;1.38;;;;;;;20.68;100.00;96831.19;4995053;28;20425;-82
2021/07/20 00:33:49;;;;;;;1.05;0.70;;;;;;;20.70;100.00;96834.59;4994962;28;20040;-82
2021/07/20 00:36:15;;;;;;;2.42;1.60;;;;;;;20.60;100.00;96830.38;4990221;28;20081;-82
2021/07/20 00:38:41;;;;;;;1.58;1.15;;;;;;;20.62;100.00;96844.63;5003122;28;20030;-81
2021/07/20 00:41:07;;;;;;;0.68;0.65;;;;;;;20.55;100.00;96833.59;4996602;28;20481;-82
2021/07/20 00:43:33;;;;;;;3.80;2.08;;;;;;;20.47;100.00;96837.22;4995041;28;20041;-82
2021/07/20 00:45:59;;;;;;;5.70;1.20;;;;;;;20.47;100.00;96842.66;4994454;28;20083;-82
2021/07/20 00:48:24;;;;;;;1.65;1.10;;;;;;;20.43;100.00;96840.44;4998113;28;20029;-82
2021/07/20 00:50:50;;;;;;;1.70;1.35;;;;;;;20.43;100.00;96860.31;4997880;28;20031;-82
2021/07/20 00:53:16;;;;;;;2.75;1.40;;;;;;;20.41;100.00;96854.22;4997688;28;20035;-82
2021/07/20 00:55:41;;;;;;;2.22;1.23;;;;;;;20.32;100.00;96843.53;4994627;28;20029;-79
2021/07/20 00:58:08;;;;;;;1.08;1.08;;;;;;;20.28;100.00;96851.16;4996419;28;20113;-80
2021/07/20 01:00:34;;;;;;;2.75;1.77;;;;;;;20.25;100.00;96854.19;4994321;28;20124;-80
2021/07/20 01:03:00;;;;;;;2.42;1.40;;;;;;;20.18;100.00;96857.78;4997474;28;20025;-80
2021/07/20 01:05:26;;;;;;;1.98;1.52;;;;;;;20.19;100.00;96854.03;4997867;28;20029;-80
2021/07/20 01:07:52;;;;;;;2.20;1.70;;;;;;;20.16;100.00;96851.66;5010859;28;20069;-80
2021/07/20 01:10:19;;;;;;;1.40;1.27;;;;;;;20.10;100.00;96858.63;4997276;28;20086;-80
2021/07/20 01:12:46;;;;;;;1.85;1.38;;;;;;;20.12;100.00;96858.47;5010892;28;20026;-80
2021/07/20 01:15:13;;;;;;;2.65;1.23;;;;;;;20.13;100.00;96852.84;5012913;28;20180;-80
2021/07/20 01:17:39;;;;;;;1.05;0.95;;;;;;;20.15;100.00;96858.94;4994664;28;20033;-80
2021/07/20 01:20:22;;;;;;;5.00;1.77;;;;;;;20.16;100.00;96857.09;4989174;28;20030;-80
2021/07/20 01:23:11;;;;;;;;;;;;;;;20.20;100.00;96861.16;5014337;28;20033;-81
2021/07/20 01:25:38;;;;;;;2.65;1.27;;;;;;;20.11;100.00;96856.75;5008225;28;19924;-80
2021/07/20 01:28:06;;;;;;;1.60;1.08;;;;;;;20.18;100.00;96852.34;5013658;28;20488;-81
2021/07/20 01:30:33;;;;;;;0.77;0.77;;;;;;;20.19;100.00;96854.03;4997278;28;20404;-80
2021/07/20 01:33:01;;;;;;;1.55;1.45;;;;;;;20.22;100.00;96859.13;4997072;28;20040;-80
2021/07/20 01:35:27;;;;;;;4.93;1.52;;;;;;;20.27;100.00;96864.94;4997242;28;20033;-80
2021/07/20 01:37:55;;;;;;;1.40;1.17;;;;;;;20.27;100.00;96863.03;4997193;28;20499;-80
2021/07/20 01:40:22;;;;;;;2.05;1.00;;;;;;;20.17;100.00;96856.94;5013405;28;20029;-80
2021/07/20 01:42:48;;;;;;;2.10;0.90;;;;;;;20.11;100.00;96867.63;5013639;28;20033;-80
2021/07/20 01:45:14;;;;;;;4.22;1.20;;;;;;;20.08;100.00;96862.53;4997071;28;20025;-80
2021/07/20 01:47:43;;;;;;;0.90;0.88;;;;;;;20.04;100.00;96862.03;5013583;28;20079;-80
2021/07/20 01:50:10;;;;;;;0.80;0.80;;;;;;;20.02;100.00;96861.34;4994606;28;20049;-80
2021/07/20 01:52:36;;;;;;;0.98;0.80;;;;;;;19.99;100.00;96862.50;5013566;28;20040;-80
2021/07/20 01:55:02;;;;;;;3.15;1.98;;;;;;;19.93;100.00;96863.19;5013613;28;20061;-80
2021/07/20 01:57:27;;;;;;;1.52;1.27;;;;;;;19.91;100.00;96867.09;4997195;28;20029;-80
2021/07/20 01:59:54;;;;;;;1.45;1.27;;;;;;;19.83;100.00;96865.25;4996950;28;20099;-80
2021/07/20 02:02:49;;;;;;;2.15;1.35;;;;;;;19.73;100.00;96859.13;4999170;28;20037;-80
2021/07/20 02:10:46;;;;;;;2.28;1.20;;;;;;;19.74;100.00;96871.69;5020098;28;20516;-80
2021/07/20 02:13:14;;;;;;;0.95;0.95;;;;;;;19.80;100.00;96870.16;5000748;28;20030;-80
2021/07/20 02:15:40;;;;;;;3.60;1.48;;;;;;;19.79;100.00;96871.19;5001027;28;20092;-80
2021/07/20 02:18:06;;;;;;;1.02;0.82;;;;;;;19.81;100.00;96872.69;5017269;28;20049;-80
2021/07/20 02:20:32;;;;;;;3.25;0.90;;;;;;;19.82;100.00;96874.41;5000691;28;20021;-80
2021/07/20 02:22:58;;;;;;;2.17;1.45;;;;;;;19.80;100.00;96875.59;5017121;28;20071;-80
2021/07/20 02:25:29;;;;;;;2.58;1.02;;;;;;;19.69;100.00;96871.31;5000323;28;20076;-79
2021/07/20 02:27:55;;;;;;;1.27;0.77;;;;;;;19.66;100.00;96873.53;5000724;28;20029;-80
2021/07/20 02:30:22;;;;;;;0.82;0.82;;;;;;;19.59;100.00;96870.66;5000398;28;20026;-80
2021/07/20 02:32:47;;;;;;;1.60;1.00;;;;;;;19.59;100.00;96865.22;5000661;28;20025;-80
2021/07/20 02:35:19;;;;;;;3.13;0.60;;;;;;;19.60;100.00;96866.91;5000337;28;20399;-80
2021/07/20 02:37:45;;;;;;;1.45;0.73;;;;;;;19.58;100.00;96871.66;5016869;28;20025;-80
2021/07/20 02:40:13;;;;;;;2.88;1.42;;;;;;;19.57;100.00;96867.25;5000140;28;20112;-80
2021/07/20 02:42:39;;;;;;;0.68;0.68;;;;;;;19.56;100.00;96871.00;5016667;28;20115;-80
2021/07/20 02:45:07;;;;;;;2.13;1.85;;;;;;;19.53;100.00;96871.34;5000228;28;20381;-80
2021/07/20 02:47:34;;;;;;;1.13;0.88;;;;;;;19.49;100.00;96880.81;4997108;28;20030;-80
2021/07/20 02:50:00;;;;;;;0.68;0.68;;;;;;;19.49;100.00;96888.94;5011900;28;20486;-80
2021/07/20 02:52:28;;;;;;;1.40;0.80;;;;;;;19.45;100.00;96898.44;4999941;28;20124;-80
2021/07/20 02:54:56;;;;;;;3.20;1.33;;;;;;;19.45;100.00;96884.84;5000107;28;20034;-80
2021/07/20 02:57:22;;;;;;;3.72;1.25;;;;;;;19.45;100.00;96887.56;4998204;28;20033;-80
2021/07/20 02:59:48;;;;;;;2.33;1.48;;;;;;;19.49;100.00;96891.66;5000273;28;20558;-80
2021/07/20 03:02:14;;;;;;;1.23;1.00;;;;;;;19.54;100.00;96900.13;5016158;28;20034;-80
2021/07/20 03:04:40;;;;;;;1.08;0.63;;;;;;;19.57;100.00;96891.66;5000000;28;20030;-80
2021/07/20 03:07:09;;;;;;;0.85;0.77;;;;;;;19.67;100.00;96908.66;4999881;28;20056;-81
2021/07/20 03:09:35;;;;;;;2.95;1.52;;;;;;;19.69;100.00;96911.19;5016178;28;20021;-80
2021/07/20 03:12:07;;;;;;;1.02;0.93;;;;;;;19.66;100.00;96906.94;4999630;28;20513;-80
2021/07/20 03:14:33;;;;;;;0.73;0.73;;;;;;;19.60;100.00;96913.03;4998380;28;20131;-81
2021/07/20 03:17:00;;;;;;;0.98;0.88;;;;;;;19.54;100.00;96908.28;5016392;28;20029;-81
2021/07/20 03:19:28;;;;;;;1.08;0.75;;;;;;;19.45;100.00;96907.41;4999335;28;20481;-80
2021/07/20 03:21:56;;;;;;;1.05;0.70;;;;;;;19.45;100.00;96907.41;4999706;28;20029;-81
2021/07/20 03:24:22;;;;;;;1.27;1.17;;;;;;;19.41;100.00;96911.47;4999345;28;20103;-80
2021/07/20 03:26:49;;;;;;;3.72;0.95;;;;;;;19.40;100.00;96906.22;4999812;28;20029;-81
2021/07/20 03:29:15;;;;;;;8.73;2.13;;;;;;;19.39;100.00;96909.91;5015921;28;20080;-80
2021/07/20 03:31:41;;;;;;;0.95;0.88;;;;;;;19.39;100.00;96899.94;5015555;28;20048;-80
2021/07/20 03:34:08;;;;;;;1.25;0.93;;;;;;;19.42;100.00;96909.59;4999450;28;20065;-81
2021/07/20 03:36:34;;;;;;;1.65;1.20;;;;;;;19.44;100.00;96904.88;5015745;28;20040;-81
2021/07/20 03:39:00;;;;;;;0.57;0.57;;;;;;;19.43;100.00;96911.31;5015624;28;20163;-80
2021/07/20 03:41:27;;;;;;;0.95;0.90;;;;;;;19.42;100.00;96913.16;4998919;28;20025;-81
2021/07/20 03:43:54;;;;;;;1.02;1.00;;;;;;;19.46;100.00;96909.13;4999249;28;20029;-81
2021/07/20 03:46:21;;;;;;;2.35;0.95;;;;;;;19.45;100.00;96914.69;4980121;28;20104;-81
2021/07/20 03:48:47;;;;;;;2.15;1.10;;;;;;;19.51;100.00;96919.47;5015428;28;20029;-81
2021/07/20 03:51:13;;;;;;;1.13;0.95;;;;;;;19.60;100.00;96920.31;4998924;28;20033;-81
2021/07/20 03:53:39;;;;;;;1.75;0.90;;;;;;;19.68;100.00;96926.66;4998732;28;20034;-81
2021/07/20 03:56:05;;;;;;;10.63;1.85;;;;;;;19.69;100.00;96917.47;4999700;28;20403;-81
2021/07/20 03:58:33;;;;;;;3.70;1.80;;;;;;;19.72;100.00;96919.03;5015422;28;20405;-81
2021/07/20 04:01:01;;;;;;;1.38;1.05;;;;;;;19.75;100.00;96932.25;4998844;28;20029;-81
2021/07/20 04:03:29;;;;;;;2.42;1.00;;;;;;;19.79;100.00;96939.88;4998692;28;20045;-83
2021/07/20 04:05:59;;;;;;;3.38;1.70;;;;;;;19.86;100.00;96934.63;4996328;28;20052;-79
2021/07/20 04:08:25;;;;;;;1.85;1.38;;;;;;;19.89;100.00;96937.88;4998244;28;20485;-80
2021/07/20 04:10:53;;;;;;;2.20;1.60;;;;;;;19.97;100.00;96942.44;5000834;28;20063;-79
2021/07/20 04:13:18;;;;;;;2.72;1.67;;;;;;;20.12;100.00;96945.38;5013862;28;20164;-79
2021/07/20 04:15:46;;;;;;;1.88;1.35;;;;;;;20.21;100.00;96944.34;4997659;28;20554;-78
2021/07/20 04:18:12;;;;;;;1.50;0.85;;;;;;;20.32;100.00;96953.03;5014226;28;20021;-77
2021/07/20 04:20:38;;;;;;;4.07;1.80;;;;;;;20.38;100.00;96955.06;4993673;28;20075;-80
2021/07/20 04:23:05;;;;;;;1.73;1.08;;;;;;;20.47;100.00;96961.34;4997957;28;20065;-80
2021/07/20 04:25:31;;;;;;;1.23;1.02;;;;;;;20.52;100.00;96958.94;5014357;28;20159;-81
2021/07/20 04:27:56;;;;;;;10.98;1.95;;;;;;;20.65;100.00;96958.44;4998946;28;20112;-81
2021/07/20 04:30:22;;;;;;;1.90;1.00;;;;;;;20.76;100.00;96966.25;4998682;28;20079;-81
2021/07/20 04:32:48;;;;;;;6.15;1.73;;;;;;;20.82;100.00;96965.56;5014105;28;20044;-81
2021/07/20 04:35:16;;;;;;;2.40;1.80;;;;;;;20.85;100.00;96974.22;4998094;28;20037;-81
2021/07/20 04:37:42;;;;;;;11.35;1.10;;;;;;;21.03;100.00;96974.00;5014168;28;20025;-80
2021/07/20 04:40:13;;;;;;;1.15;1.02;;;;;;;21.20;100.00;96978.41;5014461;28;20040;-80
2021/07/20 04:42:39;;;;;;;1.65;1.38;;;;;;;21.40;100.00;96973.41;5014575;28;20029;-81
2021/07/20 04:45:12;;;;;;;1.27;0.88;;;;;;;21.49;100.00;96969.63;4997850;28;20116;-81
2021/07/20 04:47:38;;;;;;;2.03;1.35;;;;;;;21.51;100.00;96973.00;5014229;28;20037;-81
2021/07/20 04:50:06;;;;;;;2.13;1.58;;;;;;;21.61;100.00;96963.63;4998031;28;20029;-81
2021/07/20 04:52:32;;;;;;;0.90;0.90;;;;;;;21.67;100.00;96982.97;4997647;28;20033;-81
2021/07/20 04:54:58;;;;;;;2.35;1.55;;;;;;;21.63;100.00;96971.59;5014345;28;20033;-81
2021/07/20 04:57:23;;;;;;;0.88;0.68;;;;;;;21.67;100.00;96974.81;4997879;28;20527;-81
2021/07/20 04:59:49;;;;;;;1.40;1.00;;;;;;;21.73;100.00;96976.81;4997746;28;20123;-81
2021/07/20 05:02:15;;;;;;;1.67;0.98;;;;;;;21.67;100.00;96978.38;4997832;28;20029;-82
2021/07/20 05:04:42;;;;;;;4.10;1.52;;;;;;;21.44;100.00;96980.22;5005752;28;20035;-82
2021/07/20 05:07:10;;;;;;;1.13;1.02;;;;;;;21.50;100.00;96977.59;4997805;28;20040;-81
2021/07/20 05:09:36;;;;;;;3.38;1.17;;;;;;;21.58;100.00;96984.91;4997462;28;20037;-81
2021/07/20 05:12:02;;;;;;;10.32;1.15;;;;;;;21.65;100.00;96980.44;4997468;28;20037;-81
2021/07/20 05:14:27;;;;;;;4.85;0.85;;;;;;;21.69;100.00;96989.94;4997300;28;20041;-81
2021/07/20 05:16:53;;;;;;;1.27;1.17;;;;;;;21.79;100.00;96984.28;5014273;28;20037;-81
2021/07/20 05:19:19;;;;;;;1.38;0.90;;;;;;;21.94;100.00;96990.69;5014066;28;20037;-82
2021/07/20 05:21:45;;;;;;;1.35;0.80;;;;;;;21.88;100.00;96984.09;4997418;28;20509;-81
2021/07/20 05:24:10;;;;;;;1.30;1.20;;;;;;;21.90;100.00;96983.94;4997695;28;20032;-82
2021/07/20 05:26:37;;;;;;;4.07;1.33;;;;;;;21.89;100.00;96988.53;4997322;28;20040;-81
2021/07/20 05:29:04;;;;;;;1.02;0.88;;;;;;;21.92;100.00;96985.44;5013946;28;20047;-81
2021/07/20 05:31:30;;;;;;;4.68;1.90;;;;;;;21.96;100.00;96991.38;4997671;28;20091;-82
2021/07/20 05:33:55;;;;;;;3.22;1.75;;;;;;;22.12;100.00;96986.66;4996642;28;20034;-82
2021/07/20 05:36:21;;;;;;;1.98;1.48;;;;;;;22.32;100.00;96981.59;5013434;28;20055;-83
2021/07/20 05:38:47;;;;;;;0.77;0.77;;;;;;;22.39;100.00;96989.91;4997379;28;20116;-82
2021/07/20 05:41:12;;;;;;;1.17;0.68;;;;;;;22.50;100.00;96981.28;4997355;28;20022;-82
2021/07/20 05:43:38;;;;;;;0.93;0.68;;;;;;;22.86;100.00;96995.97;4994273;28;20034;-83
2021/07/20 05:46:04;;;;;;;2.42;1.40;;;;;;;23.28;97.09;96994.53;4989655;28;20512;-82
2021/07/20 05:48:30;;;;;;;1.88;1.38;;;;;;;23.89;92.86;96985.97;4997579;28;20034;-82
2021/07/20 05:50:58;;;;;;;0.68;0.68;;;;;;;24.26;89.36;96983.06;4994254;28;20025;-82
2021/07/20 05:53:30;;;;;;;0.65;0.65;;;;;;;24.61;88.94;96983.19;5000282;28;20057;-82
2021/07/20 05:56:00;;;;;;;1.15;0.95;;;;;;;24.47;87.76;96995.03;4994737;28;20034;-82
2021/07/20 05:58:26;;;;;;;0.52;0.52;;;;;;;24.29;87.00;96998.22;5011984;28;20503;-82
2021/07/20 06:00:52;;;;;;;3.10;1.67;;;;;;;24.28;88.55;97005.56;4994058;28;20037;-82
2021/07/20 06:03:20;;;;;;;1.15;1.02;;;;;;;24.10;92.37;96996.94;5011969;28;20052;-82
2021/07/20 06:05:49;;;;;;;0.98;0.82;;;;;;;24.09;93.31;97002.56;5010541;28;20040;-82
2021/07/20 06:08:16;;;;;;;3.70;0.95;;;;;;;24.02;95.05;97002.53;4997212;28;20501;-82
2021/07/20 06:10:44;;;;;;;0.95;0.90;;;;;;;24.12;93.74;96997.59;4996982;28;20033;-82
2021/07/20 06:13:11;;;;;;;1.20;1.13;;;;;;;24.13;93.07;97004.78;5005666;28;20052;-82
2021/07/20 06:15:39;;;;;;;2.80;1.55;;;;;;;23.96;93.76;97002.44;4997336;28;20050;-82
2021/07/20 06:18:04;;;;;;;1.77;1.20;;;;;;;23.98;94.73;97005.81;4997095;28;20090;-83
2021/07/20 06:20:30;;;;;;;2.45;1.75;;;;;;;24.12;91.73;97005.81;4997768;28;20108;-82
2021/07/20 06:22:56;;;;;;;1.63;0.88;;;;;;;25.74;84.26;97006.63;4997576;28;20403;-82
2021/07/20 06:25:24;;;;;;;2.05;1.85;;;;;;;26.62;77.57;97015.81;5014068;28;20137;-82
2021/07/20 06:27:50;;;;;;;0.75;0.75;;;;;;;27.57;72.41;97009.94;5010721;28;20037;-82
2021/07/20 06:30:16;;;;;;;11.80;2.30;;;;;;;28.74;65.86;97019.66;4997603;28;20020;-83
2021/07/20 06:32:42;;;;;;;4.57;1.27;;;;;;;28.72;65.36;97015.44;4997299;28;20080;-83
2021/07/20 06:35:11;;;;;;;0.50;0.50;;;;;;;30.67;56.23;97029.44;4996773;28;20025;-83
2021/07/20 06:37:37;;;;;;;1.27;0.57;;;;;;;31.15;55.70;97024.69;5013450;28;20036;-83
2021/07/20 06:40:03;;;;;;;0.73;0.73;;;;;;;31.53;52.78;97033.41;5000417;28;20026;-82
2021/07/20 06:42:29;;;;;;;9.32;0.93;;;;;;;31.82;51.34;97025.22;4991175;28;20026;-83
2021/07/20 06:44:54;;;;;;;2.38;1.73;;;;;;;31.55;53.16;97030.41;4996933;28;20116;-83
2021/07/20 06:47:20;;;;;;;4.70;2.05;;;;;;;30.86;55.67;97028.28;4997670;28;20411;-83
2021/07/20 06:49:47;;;;;;;1.38;1.25;;;;;;;31.86;51.63;97031.97;5000878;28;20400;-84
2021/07/20 06:52:15;;;;;;;4.72;1.63;;;;;;;30.43;55.30;97023.78;5000424;28;20031;-83
2021/07/20 06:54:42;;;;;;;0.95;0.85;;;;;;;31.99;50.26;97028.94;5000481;28;20057;-82
2021/07/20 06:57:11;;;;;;;1.48;1.38;;;;;;;33.92;46.63;97031.56;5016710;28;20508;-83
2021/07/20 06:59:38;;;;;;;0.35;0.35;;;;;;;34.96;43.41;97032.38;5016669;28;20486;-83
2021/07/20 07:02:06;;;;;;;1.80;1.40;;;;;;;34.80;42.37;97036.94;5016686;28;20078;-84
2021/07/20 07:04:36;;;;;;;0.90;0.82;;;;;;;34.66;42.27;97039.31;4997036;28;20561;-82
2021/07/20 07:07:02;;;;;;;1.52;1.23;;;;;;;34.25;44.41;97037.06;4998354;28;20095;-84
2021/07/20 07:09:29;;;;;;;1.33;1.15;;;;;;;35.80;42.09;97039.91;5000165;28;20021;-84
2021/07/20 07:11:55;;;;;;;1.85;0.90;;;;;;;36.74;38.74;97037.13;5000268;28;20579;-82
2021/07/20 07:14:23;;;;;;;1.45;1.33;;;;;;;36.75;38.31;97036.00;5016617;28;20029;-83
2021/07/20 07:16:52;;;;;;;0.98;0.98;;;;;;;36.62;38.47;97042.09;5016827;28;20044;-83
2021/07/20 07:19:19;;;;;;;1.60;1.17;;;;;;;37.13;37.97;97045.88;5000016;28;20030;-83
2021/07/20 07:21:47;;;;;;;3.92;1.77;;;;;;;37.26;37.52;97044.50;5017222;28;20025;-83
2021/07/20 07:24:14;;;;;;;1.27;1.17;;;;;;;37.57;38.17;97049.03;5013097;28;20404;-83
2021/07/20 07:26:41;;;;;;;11.25;2.78;;;;;;;37.75;38.65;97054.06;4994907;28;20029;-83
2021/07/20 07:29:08;;;;;;;1.08;1.00;;;;;;;37.86;37.88;97057.72;5016608;28;20187;-83
2021/07/20 07:31:34;;;;;;;1.35;0.98;;;;;;;38.03;36.25;97049.88;4999979;28;20026;-83
2021/07/20 07:34:00;;;;;;;0.88;0.85;;;;;;;37.78;36.57;97039.53;5016311;28;20036;-83
2021/07/20 07:36:27;;;;;;;1.88;1.23;;;;;;;38.25;35.30;97043.97;4999962;28;20517;-83
2021/07/20 07:38:54;;;;;;;1.83;1.27;;;;;;;38.62;35.66;97047.25;5000158;28;20493;-83
2021/07/20 07:41:22;;;;;;;0.75;0.75;;;;;;;38.94;34.61;97041.25;4999548;28;20415;-81
2021/07/20 07:43:49;;;;;;;1.58;1.42;;;;;;;39.63;33.67;97035.47;5016638;28;20022;-81
2021/07/20 07:46:15;;;;;;;4.88;1.33;;;;;;;38.21;36.33;97045.69;4999686;28;20103;-81
2021/07/20 07:48:41;;;;;;;0.90;0.90;;;;;;;38.45;35.44;97047.59;5000345;28;20033;-84
2021/07/20 07:51:08;;;;;;;1.02;0.77;;;;;;;38.67;34.12;97036.00;5015879;28;20168;-83
2021/07/20 07:53:59;;;;;;;1.85;1.55;;;;;;;38.86;33.32;97039.03;4999642;28;20120;-84
2021/07/20 07:56:26;;;;;;;1.00;0.80;;;;;;;39.25;34.13;97045.59;5015724;28;20424;-83
2021/07/20 07:58:52;;;;;;;5.18;4.35;;;;;;;38.90;34.38;97041.00;5014942;28;20268;-80
2021/07/20 08:01:17;;;;;;;14.93;9.57;;;;;;;38.38;32.86;97035.03;4999142;28;20087;-81
2021/07/20 08:03:45;;;;;;;16.20;10.65;;;;;;;38.81;34.42;97042.72;4999529;28;20463;-82
2021/07/20 08:06:19;;;;;;;12.45;10.65;;;;;;;38.98;34.73;97043.16;5015483;28;20029;-80
2021/07/20 08:08:45;;;;;;;16.48;11.65;;;;;;;38.64;35.25;97038.56;5000413;28;20029;-81
2021/07/20 08:11:11;;;;;;;17.33;12.00;;;;;;;38.78;35.08;97046.06;4998866;28;20559;-82
2021/07/20 08:13:38;;;;;;;23.15;11.85;;;;;;;38.38;36.15;97040.63;5015367;28;20400;-81
2021/07/20 08:16:05;;;;;;;20.23;11.57;;;;;;;37.97;34.57;97025.88;4998911;28;20496;-82
2021/07/20 08:18:31;;;;;;;17.25;11.23;;;;;;;38.50;35.61;97032.75;5015573;28;20029;-81
2021/07/20 08:21:05;;;;;;;16.02;9.93;;;;;;;38.94;34.76;97030.91;5015518;28;20585;-81
2021/07/20 08:23:32;;;;;;;18.00;10.75;;;;;;;40.16;32.93;97030.00;5016722;28;20451;-81
2021/07/20 08:26:04;;;;;;;12.65;7.90;;;;;;;39.70;31.17;97015.56;5015374;28;20461;-81
2021/07/20 08:28:39;;;;;;;16.08;8.30;;;;;;;39.37;33.08;97022.81;4999013;28;20440;-82
2021/07/20 08:31:05;;;;;;;20.02;8.35;;;;;;;40.94;30.47;97010.84;5015524;28;20100;-82
2021/07/20 08:33:33;;;;;;;13.88;7.40;;;;;;;41.53;28.64;97004.66;4999259;28;20029;-83
2021/07/20 08:36:04;;;;;;;10.52;7.97;;;;;;;41.54;30.16;97017.53;4999859;28;20517;-83
2021/07/20 08:38:30;;;;;;;24.65;7.57;;;;;;;41.98;27.83;97012.31;4999116;28;20115;-83
2021/07/20 08:41:09;;;;;;;13.25;7.03;;;;;;;42.29;26.49;96998.53;4998974;28;20036;-83
2021/07/20 08:43:59;;;;;;;11.73;7.32;;;;;;;41.71;27.75;97005.75;4982987;28;20037;-83
2021/07/20 08:46:41;;;;;;;9.33;7.57;;;;;;;40.81;28.36;96998.38;5032629;28;20124;-83
2021/07/20 08:49:31;;;;;;;18.15;7.07;;;;;;;41.41;27.68;97007.91;5032581;28;20031;-82
2021/07/20 08:52:07;;;;;;;14.55;8.02;;;;;;;41.87;27.92;97010.81;5009954;28;20465;-83
2021/07/20 08:54:49;;;;;;;11.75;7.20;;;;;;;41.83;27.61;97001.34;4998511;28;20404;-83
2021/07/20 08:57:19;;;;;;;17.98;7.30;;;;;;;41.90;28.78;97010.19;5011759;28;20041;-83
2021/07/20 08:59:49;;;;;;;19.83;9.82;;;;;;;41.47;28.77;97008.69;5014507;28;20065;-83
2021/07/20 09:02:35;;;;;;;10.93;7.32;;;;;;;41.46;26.95;96990.16;5014305;28;20079;-82
2021/07/20 09:05:05;;;;;;;10.23;6.60;;;;;;;41.17;28.62;97003.50;4998000;28;20112;-82
2021/07/20 09:07:42;;;;;;;8.70;6.28;;;;;;;41.09;27.06;96988.19;4997716;28;20025;-82
2021/07/20 09:10:12;;;;;;;7.22;6.43;;;;;;;41.31;28.16;96993.19;4997939;28;20040;-83
2021/07/20 09:12:41;;;;;;;10.77;6.40;;;;;;;42.85;27.08;96997.38;5014132;28;20033;-83
2021/07/20 09:15:19;;;;;;;24.23;17.83;;;;;;;42.80;25.37;96989.88;4997583;28;20509;-84
2021/07/20 09:17:45;;;;;;;11.52;7.13;;;;;;;41.33;28.65;96999.31;5014841;28;20087;-83
2021/07/20 09:20:13;;;;;;;11.55;7.03;;;;;;;39.96;31.09;96997.38;5013770;28;20029;-83
2021/07/20 09:23:04;;;;;;;6.88;6.18;;;;;;;38.60;30.29;96996.34;5014360;28;20036;-84
2021/07/20 09:25:57;;;;;;;8.15;6.55;;;;;;;37.85;33.07;97001.00;5013615;28;20037;-83
2021/07/20 09:28:36;;;;;;;12.90;7.13;;;;;;;38.02;31.61;96997.09;5016195;28;20101;-83
2021/07/20 09:31:07;;;;;;;8.25;7.20;;;;;;;35.55;34.29;96986.78;5014899;28;20017;-83
2021/07/20 09:33:46;;;;;;;9.00;7.15;;;;;;;34.87;35.68;96992.25;4998264;28;20172;-83
2021/07/20 09:36:20;;;;;;;12.15;7.13;;;;;;;35.16;35.72;96997.28;5011218;28;20040;-83
2021/07/20 09:38:55;;;;;;;13.85;6.88;;;;;;;36.19;34.44;96990.31;5013894;28;20048;-83
2021/07/20 09:41:46;;;;;;;12.18;6.90;;;;;;;38.60;30.50;96975.94;5013632;28;20065;-82
2021/07/20 09:44:22;;;;;;;11.60;6.82;;;;;;;40.38;27.55;96968.59;5013980;28;20060;-83
2021/07/20 09:46:57;;;;;;;12.05;7.32;;;;;;;41.58;27.84;96968.03;4990422;28;20409;-83
2021/07/20 09:49:48;;;;;;;9.05;6.28;;;;;;;42.32;25.23;96957.69;5013232;28;20412;-83
2021/07/20 09:52:43;;;;;;;12.27;9.60;;;;;;;42.23;26.05;96956.75;5003403;28;20132;-83
2021/07/20 09:55:39;;;;;;;7.43;6.68;;;;;;;42.56;27.07;96973.19;5012856;28;20025;-82
2021/07/20 09:58:24;;;;;;;13.63;7.35;;;;;;;42.60;26.12;96967.81;5000783;28;20065;-82
2021/07/20 10:00:50;;;;;;;32.08;10.77;;;;;;;42.50;26.46;96965.19;5017193;28;20076;-81
2021/07/20 10:03:46;;;;;;;10.38;6.75;;;;;;;43.08;27.30;96959.69;5031530;28;20056;-81
2021/07/20 10:06:34;;;;;;;10.00;7.25;;;;;;;42.79;26.29;96956.41;5013737;28;20083;-81
2021/07/20 10:09:10;;;;;;;12.27;6.95;;;;;;;42.70;25.28;96955.50;4997393;28;20060;-82
2021/07/20 10:11:45;;;;;;;15.45;7.30;;;;;;;42.66;24.89;96950.50;4996776;28;20022;-82
2021/07/20 10:14:23;;;;;;;13.93;7.13;;;;;;;42.99;24.99;96954.00;4996875;28;20125;-82
2021/07/20 10:16:48;;;;;;;9.18;7.40;;;;;;;42.44;25.88;96958.00;5005802;28;20118;-81
2021/07/20 10:19:33;;;;;;;31.48;7.70;;;;;;;42.74;26.49;96956.50;5013350;28;20120;-81
2021/07/20 10:22:00;;;;;;;14.75;7.57;;;;;;;43.38;25.72;96947.72;5013198;28;20087;-81
2021/07/20 10:24:28;;;;;;;9.43;6.90;;;;;;;44.57;24.68;96951.59;5000588;28;20033;-82
2021/07/20 10:27:13;;;;;;;11.40;6.93;;;;;;;44.53;25.32;96944.91;5017207;28;20071;-82
2021/07/20 10:30:06;;;;;;;9.02;6.63;;;;;;;43.24;25.12;96941.28;5017404;28;20488;-82
2021/07/20 10:32:43;;;;;;;13.30;8.52;;;;;;;42.67;26.13;96935.25;5017155;28;20042;-83
2021/07/20 10:35:18;;;;;;;12.57;9.70;;;;;;;41.90;26.93;96941.91;5017363;28;20036;-82
2021/07/20 10:37:45;;;;;;;13.65;7.95;;;;;;;41.60;26.34;96937.63;5017192;28;20582;-82
2021/07/20 10:40:15;;;;;;;11.30;7.70;;;;;;;39.81;30.34;96939.50;5017455;28;20029;-82
2021/07/20 10:43:05;;;;;;;13.07;7.95;;;;;;;38.13;32.30;96942.84;5015774;28;20112;-82
2021/07/20 10:45:34;;;;;;;17.75;8.32;;;;;;;36.60;34.34;96932.81;5016862;28;20444;-82
2021/07/20 10:48:15;;;;;;;15.93;8.15;;;;;;;35.65;37.03;96949.88;5016919;28;20488;-81
2021/07/20 10:50:43;;;;;;;;;;;;;;;34.92;38.40;96936.72;5017518;28;20025;-82
2021/07/20 10:53:18;;;;;;;34.90;8.77;;;;;;;34.20;38.97;96934.25;5000410;28;19912;-81
2021/07/20 10:56:20;;;;;;;17.33;8.43;;;;;;;33.45;43.00;96937.59;5007800;28;20413;-82
2021/07/20 10:58:52;;;;;;;37.65;25.05;;;;;;;33.40;44.09;96920.88;5016641;28;20481;-82
2021/07/20 11:01:20;;;;;;;20.27;9.57;;;;;;;35.72;42.38;96915.09;5016632;28;20096;-82
2021/07/20 11:04:12;;;;;;;43.38;13.13;;;;;;;37.59;37.39;96921.19;5000301;28;20045;-83
2021/07/20 11:06:38;;;;;;;17.00;8.77;;;;;;;39.49;34.30;96916.84;5016626;28;20412;-82
2021/07/20 11:09:07;;;;;;;13.10;8.45;;;;;;;39.67;33.51;96916.13;5001621;28;20114;-82
2021/07/20 11:11:39;;;;;;;10.65;7.82;;;;;;;40.52;32.27;96911.50;5000173;28;20113;-82
2021/07/20 11:14:05;;;;;;;13.77;8.27;;;;;;;40.64;32.04;96915.84;4999778;28;20056;-82
2021/07/20 11:16:32;;;;;;;19.15;9.07;;;;;;;39.91;32.23;96916.97;4999691;28;20468;-82
2021/07/20 11:19:00;;;;;;;15.50;9.65;;;;;;;39.03;33.90;96921.97;4999947;28;20025;-84
2021/07/20 11:21:27;;;;;;;10.73;8.40;;;;;;;39.65;33.80;96917.53;4999878;28;20033;-83
2021/07/20 11:23:54;;;;;;;11.73;7.85;;;;;;;39.23;34.21;96912.59;5016682;28;20400;-83
2021/07/20 11:26:20;;;;;;;10.50;7.82;;;;;;;37.84;36.02;96914.69;5000045;28;20501;-84
2021/07/20 11:31:35;;;;;;;14.45;11.93;;;;;;;35.75;39.33;96916.50;4980028;23;20057;-78
2021/07/20 11:34:22;;;;;;;24.08;10.80;;;;;;;35.34;41.07;96912.59;5003328;28;20034;-78
2021/07/20 11:36:48;;;;;;;15.93;9.20;;;;;;;35.24;42.44;96918.09;4980280;28;20071;-77
2021/07/20 11:39:21;;;;;;;12.95;9.25;;;;;;;36.03;39.96;96906.88;4980255;28;20067;-79
2021/07/20 11:41:59;;;;;;;17.58;9.57;;;;;;;36.55;38.99;96913.25;4980078;28;20033;-79
2021/07/20 11:44:32;;;;;;;21.55;12.82;;;;;;;36.83;38.63;96923.91;4993201;28;20496;-77
2021/07/20 11:47:02;;;;;;;14.60;9.05;;;;;;;38.08;36.97;96926.09;5006930;28;20041;-76